createdAt,value
2017-08-25T00:00:30.975Z,18.60
2017-08-25T00:02:58.456Z,18.60
2017-08-25T00:05:25.990Z,18.60
2017-08-25T00:07:53.506Z,18.50
2017-08-25T00:10:21.063Z,18.50
2017-08-25T00:12:48.535Z,18.50
2017-08-25T00:15:16.011Z,18.50
2017-08-25T00:17:43.535Z,18.50
2017-08-25T00:20:11.019Z,18.50
2017-08-25T00:22:38.546Z,18.50
2017-08-25T00:25:06.099Z,18.50
2017-08-25T00:27:33.587Z,18.40
2017-08-25T00:30:01.063Z,18.40
2017-08-25T00:32:28.573Z,18.40
2017-08-25T00:34:56.150Z,18.40
2017-08-25T00:37:23.639Z,18.40
2017-08-25T00:39:51.115Z,18.30
2017-08-25T00:42:18.591Z,18.30
2017-08-25T00:44:46.064Z,18.30
2017-08-25T00:47:13.618Z,18.30
2017-08-25T00:49:41.095Z,18.20
2017-08-25T00:52:08.636Z,18.20
2017-08-25T00:54:36.199Z,18.20
2017-08-25T00:57:03.682Z,18.20
2017-08-25T00:59:31.164Z,18.20
2017-08-25T01:01:58.671Z,18.20
2017-08-25T01:04:26.227Z,18.20
2017-08-25T01:06:53.792Z,18.20
2017-08-25T01:09:21.270Z,18.20
2017-08-25T01:11:48.791Z,18.20
2017-08-25T01:14:16.281Z,18.30
2017-08-25T01:16:43.801Z,18.30
2017-08-25T01:19:11.357Z,18.30
2017-08-25T01:21:38.931Z,18.40
2017-08-25T01:24:06.484Z,18.40
2017-08-25T01:26:33.953Z,18.40
2017-08-25T01:29:01.489Z,18.40
2017-08-25T01:31:29.049Z,18.50
2017-08-25T01:33:56.623Z,18.40
2017-08-25T01:36:24.128Z,18.40
2017-08-25T01:38:51.669Z,18.40
2017-08-25T01:41:19.121Z,18.40
2017-08-25T01:43:46.645Z,18.50
2017-08-25T01:46:14.220Z,18.50
2017-08-25T01:48:41.715Z,18.50
2017-08-25T01:51:09.224Z,18.50
2017-08-25T01:53:36.680Z,18.40
2017-08-25T01:56:04.250Z,18.40
2017-08-25T01:58:31.727Z,18.40
2017-08-25T02:00:59.263Z,18.40
2017-08-25T02:03:26.741Z,18.30
2017-08-25T02:05:54.273Z,18.30
2017-08-25T02:08:21.837Z,18.30
2017-08-25T02:10:49.333Z,18.20
2017-08-25T02:13:16.852Z,18.20
2017-08-25T02:15:44.325Z,18.20
2017-08-25T02:18:11.791Z,18.20
2017-08-25T02:20:39.313Z,18.20
2017-08-25T02:23:06.869Z,18.20
2017-08-25T02:25:34.435Z,18.20
2017-08-25T02:28:01.902Z,18.10
2017-08-25T02:30:29.380Z,18.10
2017-08-25T02:32:56.850Z,18.10
2017-08-25T02:35:24.359Z,18.10
2017-08-25T02:37:51.935Z,18.00
2017-08-25T02:40:19.392Z,18.00
2017-08-25T02:42:46.974Z,18.00
2017-08-25T02:45:14.544Z,17.90
2017-08-25T02:47:42.060Z,17.90
2017-08-25T02:50:09.634Z,17.90
2017-08-25T02:52:37.177Z,17.80
2017-08-25T02:55:04.738Z,17.90
2017-08-25T02:57:32.287Z,17.90
2017-08-25T02:59:59.797Z,17.90
2017-08-25T03:02:27.309Z,17.90
2017-08-25T03:04:54.784Z,17.80
2017-08-25T03:07:22.365Z,17.80
2017-08-25T03:09:49.835Z,17.80
2017-08-25T03:12:17.307Z,17.90
2017-08-25T03:14:44.793Z,17.80
2017-08-25T03:17:12.274Z,17.80
2017-08-25T03:19:39.806Z,17.80
2017-08-25T03:22:07.287Z,17.80
2017-08-25T03:24:34.756Z,17.80
2017-08-25T03:27:02.234Z,17.70
2017-08-25T03:29:29.744Z,17.70
2017-08-25T03:31:57.299Z,17.70
2017-08-25T03:34:24.753Z,17.70
2017-08-25T03:36:52.271Z,17.60
2017-08-25T03:39:19.766Z,17.60
2017-08-25T03:41:47.242Z,17.60
2017-08-25T03:44:14.781Z,17.60
2017-08-25T03:46:42.263Z,17.60
2017-08-25T03:49:09.730Z,17.60
2017-08-25T03:51:37.249Z,17.60
2017-08-25T03:54:04.857Z,17.60
2017-08-25T03:56:32.825Z,17.70
2017-08-25T03:59:00.339Z,17.70
2017-08-25T04:01:27.812Z,17.70
2017-08-25T04:03:55.281Z,17.70
2017-08-25T04:06:22.766Z,17.70
2017-08-25T04:08:50.258Z,17.70
2017-08-25T04:11:17.831Z,17.80
2017-08-25T04:13:45.389Z,17.80
2017-08-25T04:16:12.943Z,17.80
2017-08-25T04:18:40.411Z,17.80
2017-08-25T04:21:07.885Z,17.80
2017-08-25T04:23:35.460Z,17.80
2017-08-25T04:26:02.921Z,17.80
2017-08-25T04:28:30.517Z,17.80
2017-08-25T04:30:57.977Z,17.80
2017-08-25T04:33:25.538Z,17.90
2017-08-25T04:35:53.094Z,17.80
2017-08-25T04:38:20.554Z,17.80
2017-08-25T04:40:48.037Z,17.80
2017-08-25T04:43:15.505Z,17.80
2017-08-25T04:45:42.982Z,17.80
2017-08-25T04:48:10.537Z,17.80
2017-08-25T04:50:38.036Z,17.70
2017-08-25T04:53:05.508Z,17.70
2017-08-25T04:55:33.068Z,17.60
2017-08-25T04:58:00.530Z,17.60
2017-08-25T05:00:28.030Z,17.70
2017-08-25T05:02:55.507Z,17.70
2017-08-25T05:05:22.994Z,17.70
2017-08-25T05:07:50.467Z,17.70
2017-08-25T05:10:17.947Z,17.70
2017-08-25T05:12:45.424Z,17.70
2017-08-25T05:15:12.964Z,17.70
2017-08-25T05:17:40.435Z,17.70
2017-08-25T05:20:07.935Z,17.70
2017-08-25T05:22:35.487Z,17.70
2017-08-25T05:25:02.967Z,17.70
2017-08-25T05:27:30.501Z,17.70
2017-08-25T05:29:57.977Z,17.70
2017-08-25T05:32:25.823Z,17.70
2017-08-25T05:34:53.307Z,17.70
2017-08-25T05:37:20.782Z,17.70
2017-08-25T05:39:49.109Z,17.70
2017-08-25T05:42:16.683Z,17.60
2017-08-25T05:44:44.167Z,17.70
2017-08-25T05:47:11.634Z,17.80
2017-08-25T05:49:39.111Z,17.90
2017-08-25T05:52:06.583Z,18.00
2017-08-25T05:54:34.045Z,18.00
2017-08-25T05:57:01.622Z,18.10
2017-08-25T05:59:29.168Z,18.20
2017-08-25T06:01:56.645Z,18.30
2017-08-25T06:04:24.132Z,18.30
2017-08-25T06:06:51.649Z,18.30
2017-08-25T06:09:19.106Z,18.30
2017-08-25T06:11:46.713Z,18.40
2017-08-25T06:14:14.221Z,18.50
2017-08-25T06:16:41.787Z,18.40
2017-08-25T06:19:09.344Z,18.50
2017-08-25T06:21:36.885Z,18.50
2017-08-25T06:24:04.466Z,18.60
2017-08-25T06:26:32.035Z,18.80
2017-08-25T06:28:59.576Z,18.90
2017-08-25T06:31:27.134Z,18.80
2017-08-25T06:33:54.798Z,18.60
2017-08-25T06:36:22.265Z,18.50
2017-08-25T06:38:49.815Z,18.60
2017-08-25T06:41:17.380Z,18.70
2017-08-25T06:43:44.942Z,18.80
2017-08-25T06:46:12.423Z,18.90
2017-08-25T06:48:39.967Z,18.80
2017-08-25T06:51:07.493Z,18.80
2017-08-25T06:53:35.054Z,18.80
2017-08-25T06:56:02.682Z,18.70
2017-08-25T06:58:30.168Z,18.70
2017-08-25T07:00:57.655Z,18.90
2017-08-25T07:03:25.135Z,19.00
2017-08-25T07:05:52.627Z,19.20
2017-08-25T07:08:20.105Z,19.30
2017-08-25T07:10:47.682Z,19.30
2017-08-25T07:13:15.155Z,19.40
2017-08-25T07:15:42.655Z,19.50
2017-08-25T07:18:10.147Z,19.60
2017-08-25T07:20:37.630Z,19.70
2017-08-25T07:23:05.102Z,19.80
2017-08-25T07:25:32.593Z,20.00
2017-08-25T07:28:00.069Z,20.10
2017-08-25T07:30:27.615Z,20.00
2017-08-25T07:32:55.145Z,20.00
2017-08-25T07:35:22.637Z,20.10
2017-08-25T07:37:50.119Z,20.10
2017-08-25T07:40:17.594Z,20.00
2017-08-25T07:42:45.082Z,20.00
2017-08-25T07:45:12.547Z,20.00
2017-08-25T07:47:40.009Z,19.90
2017-08-25T07:50:07.483Z,19.90
2017-08-25T07:52:34.941Z,20.00
2017-08-25T07:55:02.411Z,20.00
2017-08-25T07:57:29.879Z,20.00
2017-08-25T07:59:57.378Z,20.10
2017-08-25T08:02:24.833Z,20.30
2017-08-25T08:04:52.320Z,20.30
2017-08-25T08:07:19.870Z,20.50
2017-08-25T08:09:47.383Z,20.60
2017-08-25T08:12:14.910Z,20.70
2017-08-25T08:14:42.378Z,20.80
2017-08-25T08:17:09.918Z,20.70
2017-08-25T08:19:37.430Z,20.80
2017-08-25T08:22:04.898Z,20.80
2017-08-25T08:24:32.391Z,20.80
2017-08-25T08:26:59.848Z,21.00
2017-08-25T08:29:27.313Z,21.20
2017-08-25T08:31:54.809Z,21.30
2017-08-25T08:34:22.356Z,21.30
2017-08-25T08:36:49.824Z,21.20
2017-08-25T08:39:17.327Z,21.20
2017-08-25T08:41:44.798Z,21.20
2017-08-25T08:44:12.271Z,21.30
2017-08-25T08:46:39.739Z,21.40
2017-08-25T08:49:07.255Z,21.50
2017-08-25T08:51:34.731Z,21.50
2017-08-25T08:54:02.210Z,21.60
2017-08-25T08:56:29.718Z,21.80
2017-08-25T08:58:57.331Z,21.90
2017-08-25T09:01:24.809Z,21.90
2017-08-25T09:03:52.294Z,21.70
2017-08-25T09:06:35.411Z,21.60
2017-08-25T09:09:02.977Z,21.70
2017-08-25T09:11:30.535Z,21.80
2017-08-25T09:13:58.005Z,21.80
2017-08-25T09:16:25.476Z,21.80
2017-08-25T09:18:52.948Z,21.80
2017-08-25T09:21:20.459Z,21.70
2017-08-25T09:23:48.016Z,21.60
2017-08-25T09:26:15.571Z,21.50
2017-08-25T09:28:43.038Z,21.50
2017-08-25T09:31:10.598Z,21.40
2017-08-25T09:33:38.149Z,21.40
2017-08-25T09:36:05.615Z,21.40
2017-08-25T09:38:33.173Z,21.50
2017-08-25T09:41:00.641Z,21.70
2017-08-25T09:43:28.124Z,21.80
2017-08-25T09:45:55.655Z,21.90
2017-08-25T09:48:23.204Z,22.10
2017-08-25T09:50:50.753Z,22.10
2017-08-25T09:53:18.316Z,22.10
2017-08-25T09:55:45.785Z,22.30
2017-08-25T09:58:13.332Z,22.30
2017-08-25T10:00:40.901Z,22.30
2017-08-25T10:03:08.365Z,22.30
2017-08-25T10:05:35.844Z,22.40
2017-08-25T10:08:03.315Z,22.40
2017-08-25T10:10:30.791Z,22.50
2017-08-25T10:12:58.254Z,22.40
2017-08-25T10:15:25.730Z,22.70
2017-08-25T10:17:53.206Z,22.80
2017-08-25T10:20:20.741Z,22.80
2017-08-25T10:22:48.323Z,22.80
2017-08-25T10:25:15.876Z,23.10
2017-08-25T10:27:43.334Z,23.20
2017-08-25T10:30:10.883Z,23.10
2017-08-25T10:32:38.343Z,23.00
2017-08-25T10:35:17.669Z,23.00
2017-08-25T10:37:57.255Z,22.90
2017-08-25T10:40:36.751Z,23.10
2017-08-25T10:43:16.093Z,23.40
2017-08-25T10:45:43.638Z,23.30
2017-08-25T10:48:11.254Z,23.00
2017-08-25T10:50:38.753Z,22.80
2017-08-25T10:53:06.223Z,22.80
2017-08-25T10:55:33.778Z,22.80
2017-08-25T10:58:01.330Z,22.50
2017-08-25T11:00:28.800Z,22.40
2017-08-25T11:02:56.274Z,22.70
2017-08-25T11:05:23.733Z,23.30
2017-08-25T11:07:51.283Z,23.50
2017-08-25T11:10:18.823Z,23.50
2017-08-25T11:12:46.375Z,23.60
2017-08-25T11:15:13.838Z,23.60
2017-08-25T11:17:41.306Z,23.60
2017-08-25T11:20:08.847Z,23.60
2017-08-25T11:22:36.373Z,23.70
2017-08-25T11:25:03.839Z,23.40
2017-08-25T11:27:31.304Z,23.10
2017-08-25T11:29:58.790Z,23.00
2017-08-25T11:32:26.268Z,23.00
2017-08-25T11:34:53.727Z,22.70
2017-08-25T11:37:21.185Z,22.90
2017-08-25T11:39:48.698Z,22.90
2017-08-25T11:42:16.197Z,23.20
2017-08-25T11:44:43.681Z,23.70
2017-08-25T11:47:11.147Z,23.90
2017-08-25T11:49:38.693Z,24.10
2017-08-25T11:52:06.211Z,24.00
2017-08-25T11:54:33.759Z,23.80
2017-08-25T11:57:01.231Z,23.40
2017-08-25T11:59:28.735Z,23.10
2017-08-25T12:01:56.244Z,23.00
2017-08-25T12:04:23.706Z,23.30
2017-08-25T12:06:51.171Z,23.50
2017-08-25T12:09:18.638Z,23.60
2017-08-25T12:11:46.112Z,24.00
2017-08-25T12:14:13.600Z,24.30
2017-08-25T12:16:41.069Z,24.60
2017-08-25T12:19:08.525Z,24.90
2017-08-25T12:21:35.976Z,24.70
2017-08-25T12:24:03.525Z,24.20
2017-08-25T12:26:31.015Z,24.00
2017-08-25T12:28:58.550Z,24.00
2017-08-25T12:31:26.106Z,24.20
2017-08-25T12:33:53.675Z,24.40
2017-08-25T12:36:21.154Z,24.40
2017-08-25T12:38:48.678Z,24.50
2017-08-25T12:41:16.154Z,24.70
2017-08-25T12:43:43.693Z,25.00
2017-08-25T12:46:11.170Z,25.40
2017-08-25T12:48:38.622Z,25.30
2017-08-25T12:51:06.094Z,25.10
2017-08-25T12:53:33.565Z,25.20
2017-08-25T12:56:01.097Z,25.10
2017-08-25T12:58:28.579Z,24.90
2017-08-25T13:00:56.093Z,24.60
2017-08-25T13:03:23.645Z,24.50
2017-08-25T13:05:51.105Z,24.40
2017-08-25T13:08:18.671Z,24.40
2017-08-25T13:10:46.249Z,24.30
2017-08-25T13:13:13.786Z,24.40
2017-08-25T13:15:41.339Z,24.70
2017-08-25T13:18:08.802Z,25.00
2017-08-25T13:20:36.261Z,25.00
2017-08-25T13:23:03.835Z,25.00
2017-08-25T13:25:31.375Z,25.10
2017-08-25T13:27:58.847Z,25.10
2017-08-25T13:30:26.319Z,25.20
2017-08-25T13:32:53.858Z,25.40
2017-08-25T13:35:21.333Z,25.00
2017-08-25T13:37:48.868Z,24.70
2017-08-25T13:40:16.453Z,24.60
2017-08-25T13:42:43.930Z,24.70
2017-08-25T13:45:11.400Z,24.80
2017-08-25T13:47:38.858Z,24.90
2017-08-25T13:50:06.337Z,24.90
2017-08-25T13:52:33.794Z,25.20
2017-08-25T13:55:01.371Z,25.30
2017-08-25T13:57:28.825Z,25.50
2017-08-25T13:59:56.276Z,25.60
2017-08-25T14:02:23.831Z,26.00
2017-08-25T14:04:51.400Z,26.40
2017-08-25T14:07:18.960Z,26.50
2017-08-25T14:09:46.516Z,26.30
2017-08-25T14:12:13.982Z,26.30
2017-08-25T14:14:41.458Z,26.50
2017-08-25T14:17:08.991Z,26.40
2017-08-25T14:19:36.463Z,26.30
2017-08-25T14:22:03.937Z,26.30
2017-08-25T14:24:31.448Z,26.50
2017-08-25T14:26:59.019Z,26.40
2017-08-25T14:29:26.480Z,26.50
2017-08-25T14:31:54.033Z,26.70
2017-08-25T14:34:21.595Z,26.80
2017-08-25T14:36:49.061Z,26.80
2017-08-25T14:39:16.597Z,26.60
2017-08-25T14:41:44.086Z,26.50
2017-08-25T14:44:11.568Z,26.30
2017-08-25T14:46:39.070Z,26.00
2017-08-25T14:49:06.636Z,26.30
2017-08-25T14:51:34.089Z,26.70
2017-08-25T14:54:01.545Z,27.00
2017-08-25T14:56:29.012Z,27.30
2017-08-25T14:58:56.558Z,27.40
2017-08-25T15:01:24.119Z,27.40
2017-08-25T15:03:51.678Z,27.10
2017-08-25T15:06:19.132Z,26.70
2017-08-25T15:08:46.601Z,26.30
2017-08-25T15:11:14.160Z,26.30
2017-08-25T15:13:41.659Z,26.10
2017-08-25T15:16:09.162Z,26.20
2017-08-25T15:18:36.729Z,26.40
2017-08-25T15:21:04.195Z,26.30
2017-08-25T15:23:31.835Z,26.20
2017-08-25T15:25:59.397Z,26.30
2017-08-25T15:28:26.878Z,26.50
2017-08-25T15:30:54.421Z,26.60
2017-08-25T15:33:21.902Z,26.50
2017-08-25T15:35:49.438Z,26.40
2017-08-25T15:38:16.899Z,26.10
2017-08-25T15:40:44.391Z,25.90
2017-08-25T15:43:11.851Z,25.80
2017-08-25T15:45:39.354Z,26.00
2017-08-25T15:48:06.918Z,26.40
2017-08-25T15:50:34.473Z,26.30
2017-08-25T15:53:01.985Z,26.10
2017-08-25T15:55:29.467Z,26.30
2017-08-25T15:57:56.953Z,26.60
2017-08-25T16:00:24.427Z,26.90
2017-08-25T16:02:52.057Z,27.20
2017-08-25T16:05:19.512Z,27.00
2017-08-25T16:07:47.002Z,26.80
2017-08-25T16:10:14.468Z,26.80
2017-08-25T16:12:41.929Z,26.80
2017-08-25T16:15:09.394Z,26.70
2017-08-25T16:17:36.868Z,26.80
2017-08-25T16:20:04.346Z,26.70
2017-08-25T16:22:31.823Z,26.70
2017-08-25T16:24:59.278Z,26.70
2017-08-25T16:27:27.564Z,26.60
2017-08-25T16:29:55.029Z,26.30
2017-08-25T16:32:22.563Z,26.00
2017-08-25T16:34:50.128Z,26.00
2017-08-25T16:37:17.648Z,26.10
2017-08-25T16:39:45.147Z,26.10
2017-08-25T16:42:12.618Z,25.90
2017-08-25T16:44:40.149Z,25.80
2017-08-25T16:47:07.622Z,25.80
2017-08-25T16:49:35.094Z,25.90
2017-08-25T16:52:02.576Z,26.00
2017-08-25T16:54:30.106Z,25.80
2017-08-25T16:56:57.641Z,25.80
2017-08-25T16:59:25.129Z,25.60
2017-08-25T17:01:52.605Z,25.60
2017-08-25T17:04:20.067Z,25.60
2017-08-25T17:06:47.542Z,25.60
2017-08-25T17:09:15.095Z,25.60
2017-08-25T17:11:42.581Z,25.60
2017-08-25T17:14:10.052Z,25.50
2017-08-25T17:16:37.534Z,25.10
2017-08-25T17:19:04.991Z,24.90
2017-08-25T17:21:32.567Z,24.70
2017-08-25T17:24:00.083Z,24.50
2017-08-25T17:26:27.644Z,24.40
2017-08-25T17:28:55.107Z,24.20
2017-08-25T17:31:22.586Z,24.20
2017-08-25T17:33:50.090Z,24.10
2017-08-25T17:36:17.659Z,23.90
2017-08-25T17:38:45.219Z,23.80
2017-08-25T17:41:12.688Z,23.80
2017-08-25T17:43:40.185Z,23.60
2017-08-25T17:46:07.966Z,23.60
2017-08-25T17:48:35.462Z,23.40
2017-08-25T17:51:02.953Z,23.40
2017-08-25T17:53:30.461Z,23.30
2017-08-25T17:55:57.933Z,23.20
2017-08-25T17:58:25.486Z,23.00
2017-08-25T18:00:52.969Z,22.90
2017-08-25T18:03:20.442Z,22.80
2017-08-25T18:05:47.961Z,22.70
2017-08-25T18:08:15.512Z,22.60
2017-08-25T18:10:43.084Z,22.50
2017-08-25T18:13:10.626Z,22.40
2017-08-25T18:15:38.112Z,22.30
2017-08-25T18:18:05.573Z,22.20
2017-08-25T18:20:33.120Z,22.20
2017-08-25T18:23:00.595Z,22.10
2017-08-25T18:25:28.056Z,22.00
2017-08-25T18:27:55.652Z,22.00
2017-08-25T18:30:23.117Z,21.90
2017-08-25T18:32:50.602Z,21.80
2017-08-25T18:35:18.078Z,21.80
2017-08-25T18:37:45.599Z,21.70
2017-08-25T18:40:13.073Z,21.60
2017-08-25T18:42:40.545Z,21.60
2017-08-25T18:45:08.012Z,21.50
2017-08-25T18:47:35.554Z,21.50
2017-08-25T18:50:03.110Z,21.40
2017-08-25T18:52:30.654Z,21.40
2017-08-25T18:54:58.131Z,21.30
2017-08-25T18:57:25.607Z,21.30
2017-08-25T18:59:53.067Z,21.20
2017-08-25T19:02:20.541Z,21.20
2017-08-25T19:04:48.023Z,21.20
2017-08-25T19:07:15.613Z,21.10
2017-08-25T19:09:43.175Z,21.00
2017-08-25T19:12:10.633Z,21.00
2017-08-25T19:14:38.170Z,20.90
2017-08-25T19:17:05.721Z,21.00
2017-08-25T19:19:33.177Z,20.90
2017-08-25T19:22:00.736Z,20.80
2017-08-25T19:24:28.293Z,20.80
2017-08-25T19:26:55.865Z,20.80
2017-08-25T19:29:23.326Z,20.70
2017-08-25T19:31:50.824Z,20.70
2017-08-25T19:34:18.278Z,20.70
2017-08-25T19:36:45.748Z,20.60
2017-08-25T19:39:13.251Z,20.60
2017-08-25T19:41:40.729Z,20.50
2017-08-25T19:44:08.257Z,20.50
2017-08-25T19:46:35.820Z,20.40
2017-08-25T19:49:03.290Z,20.40
2017-08-25T19:51:30.845Z,20.40
2017-08-25T19:53:58.306Z,20.30
2017-08-25T19:56:25.800Z,20.30
2017-08-25T19:58:53.308Z,20.30
2017-08-25T20:01:20.874Z,20.20
2017-08-25T20:03:48.429Z,20.20
2017-08-25T20:06:15.891Z,20.10
2017-08-25T20:08:43.367Z,20.10
2017-08-25T20:11:10.907Z,20.00
2017-08-25T20:13:38.387Z,19.90
2017-08-25T20:16:05.851Z,19.90
2017-08-25T20:18:33.344Z,19.80
2017-08-25T20:21:00.807Z,19.70
2017-08-25T20:23:28.286Z,19.80
2017-08-25T20:25:55.842Z,19.80
2017-08-25T20:28:23.399Z,19.80
2017-08-25T20:30:50.876Z,19.80
2017-08-25T20:33:18.341Z,19.80
2017-08-25T20:35:45.861Z,19.70
2017-08-25T20:38:13.333Z,19.70
2017-08-25T20:40:40.886Z,19.80
2017-08-25T20:43:08.510Z,19.80
2017-08-25T20:45:35.977Z,19.70
2017-08-25T20:48:03.465Z,19.70
2017-08-25T20:50:31.007Z,19.60
2017-08-25T20:52:58.580Z,19.60
2017-08-25T20:55:26.182Z,19.60
2017-08-25T20:57:53.623Z,19.60
2017-08-25T21:00:21.102Z,19.60
2017-08-25T21:02:48.581Z,19.50
2017-08-25T21:05:16.053Z,19.50
2017-08-25T21:07:43.600Z,19.60
2017-08-25T21:10:11.056Z,19.50
2017-08-25T21:12:38.527Z,19.50
2017-08-25T21:15:05.995Z,19.40
2017-08-25T21:17:33.464Z,19.40
2017-08-25T21:20:00.930Z,19.40
2017-08-25T21:22:28.412Z,19.30
2017-08-25T21:24:55.888Z,19.30
2017-08-25T21:27:23.380Z,19.30
2017-08-25T21:29:50.837Z,19.20
2017-08-25T21:32:18.399Z,19.30
2017-08-25T21:34:45.950Z,19.30
2017-08-25T21:37:13.505Z,19.30
2017-08-25T21:39:41.071Z,19.30
2017-08-25T21:42:08.617Z,19.10
2017-08-25T21:44:36.178Z,19.10
2017-08-25T21:47:03.738Z,19.10
2017-08-25T21:49:31.205Z,19.00
2017-08-25T21:51:58.758Z,19.10
2017-08-25T21:54:26.305Z,19.00
2017-08-25T21:56:53.775Z,19.00
2017-08-25T21:59:21.329Z,19.00
2017-08-25T22:01:48.939Z,18.90
2017-08-25T22:04:16.398Z,18.90
2017-08-25T22:06:43.871Z,18.90
2017-08-25T22:09:11.366Z,18.90
2017-08-25T22:11:38.915Z,18.90
2017-08-25T22:14:06.380Z,18.90
2017-08-25T22:16:33.943Z,18.90
2017-08-25T22:19:01.497Z,18.90
2017-08-25T22:21:29.045Z,18.80
2017-08-25T22:23:56.506Z,18.80
2017-08-25T22:26:23.978Z,18.80
2017-08-25T22:28:51.548Z,18.80
2017-08-25T22:31:18.992Z,18.80
2017-08-25T22:33:46.533Z,18.80
2017-08-25T22:36:14.088Z,18.70
2017-08-25T22:38:41.659Z,18.70
2017-08-25T22:41:09.218Z,18.70
2017-08-25T22:43:36.675Z,18.70
2017-08-25T22:46:04.424Z,18.70
2017-08-25T22:48:31.977Z,18.60
2017-08-25T22:50:59.488Z,18.60
2017-08-25T22:53:26.958Z,18.60
2017-08-25T22:55:54.417Z,18.50
2017-08-25T22:58:22.840Z,18.60
2017-08-25T23:00:50.424Z,18.50
2017-08-25T23:03:17.958Z,18.50
2017-08-25T23:05:45.520Z,18.50
2017-08-25T23:08:13.000Z,18.40
2017-08-25T23:10:40.494Z,18.40
2017-08-25T23:13:08.007Z,18.40
2017-08-25T23:15:35.464Z,18.40
2017-08-25T23:18:02.936Z,18.40
2017-08-25T23:20:30.409Z,18.30
2017-08-25T23:22:57.913Z,18.30
2017-08-25T23:25:25.432Z,18.20
2017-08-25T23:27:52.925Z,18.20
2017-08-25T23:30:20.519Z,18.20
2017-08-25T23:32:48.001Z,18.20
2017-08-25T23:35:15.466Z,18.20
2017-08-25T23:37:43.063Z,18.20
2017-08-25T23:40:10.615Z,18.20
2017-08-25T23:42:38.178Z,18.20
2017-08-25T23:45:05.746Z,18.10
2017-08-25T23:47:33.294Z,18.10
2017-08-25T23:50:00.769Z,18.10
2017-08-25T23:52:28.304Z,18.10
2017-08-25T23:54:55.768Z,18.00
2017-08-25T23:57:23.381Z,18.00
2017-08-25T23:59:50.852Z,18.00
